PDA

View Full Version : ATIS for Lyon


Farrell
17th Sep 2005, 06:50
Anyone got the current ATIS for Lyon?

Am sandwiched between two buildings and can't pick it up.

Just wondering really because it has turned really cold and very windy in just a 12 hour period

Great for my washing though!!

CR2
17th Sep 2005, 06:56
METAR LFLL 170630Z 34013KT 9999 BKN011 OVC053 10/08 Q1013 NOSIG

Farrell
17th Sep 2005, 07:42
Thanks CR2

Must be just the wind in my street!! :uhoh:

Jerricho
17th Sep 2005, 11:26
You sure it's not from the void between your ears ;) :p

Onan the Clumsy
17th Sep 2005, 13:06
METAR
LFLL = Written down at Laurent's Fallafel stand
170630Z = Laurent's food vendor license number
34013KT = He just bought a model 34013 Kitchen Tech food processor
9999 = for 99.99 Euros (a bargain)
BKN011 = The old one had broken for the eleventh time
OVC053 = The part number needed to fix the old one
10/08 = When he was told it'll get here
Q = Refers to one of Laurent's waiters
1013 = The train he normally takes to go home, but...
NOSIG = The signalmen are on strike





you were probably getting confused thinking that OVC053 meant you had to wear an overcoat.

Farrell
17th Sep 2005, 16:42
Oh haw haw haw.....Jerricho! :}

Farrell
17th Sep 2005, 21:54
In fact Onan, we are way overdue a strike here!

Send Clowns
18th Sep 2005, 21:02
http://secure.metoffice.com/aviation/tandm.do?flash=true for future reference!